Terminal Aerodrome Forecast
Issued by NWS Twin Cities, MN

Home | Current Version | Previous Version | Text Only | Print | Product List | Glossary Off
Versions: 1 2 3 4 5 6 7 8 9 10 11 12 13 14 15 16 17 18 19 20 21 22 23 24 25 26 27 28 29

000
FTUS43 KMPX 221700
TAFMSP
TAF
KMSP 221740Z 2218/2324 14015G23KT P6SM BKN050 BKN150
     FM222100 15014G22KT P6SM SCT070 BKN150
     FM230300 15011KT P6SM OVC045
     FM230500 16008KT 5SM -SHRA BR BKN025 OVC035
     FM230900 16005KT 4SM BR BKN020
     FM231300 23006KT P6SM SCT020=

USA.gov is the U.S. government's official web portal to all federal, state and local government web resources and services.